Terminal Aerodrome Forecast
Issued by NWS

Home | Current Version | Previous Version | Graphics & Text | Print | Product List | Glossary On
Versions: 1 2 3 4 5 6 7 8 9 10 11 12 13 14 15 16 17 18
672
FTUS43 KIWX 180759 AAA
TAFSBN
TAF AMD
KSBN 180759Z 1808/1906 19004KT 4SM -RA BR OVC020 WS020/21050KT
     FM181400 06006KT 1SM -RA BR OVC003
     FM181700 35016G23KT 2SM -SHRA BR OVC008
     FM190000 32019G27KT P6SM OVC025=

USA.gov is the U.S. government's official web portal to all federal, state and local government web resources and services.